sensor_id;sensor_type;location;lat;lon;timestamp;temperature;humidity
43581;DHT22;29175;51.030;4.606;2022-11-11T00:01:05;12.00;99.90
43581;DHT22;29175;51.030;4.606;2022-11-11T00:03:33;12.00;99.90
43581;DHT22;29175;51.030;4.606;2022-11-11T00:06:10;12.30;99.90
43581;DHT22;29175;51.030;4.606;2022-11-11T00:08:36;12.40;99.90
43581;DHT22;29175;51.030;4.606;2022-11-11T00:11:05;12.40;99.90
43581;DHT22;29175;51.030;4.606;2022-11-11T00:13:32;12.50;99.90
43581;DHT22;29175;51.030;4.606;2022-11-11T00:16:06;12.30;99.90
43581;DHT22;29175;51.030;4.606;2022-11-11T00:18:35;12.20;99.90
43581;DHT22;29175;51.030;4.606;2022-11-11T00:21:19;12.40;99.90
43581;DHT22;29175;51.030;4.606;2022-11-11T00:24:07;12.40;99.90
43581;DHT22;29175;51.030;4.606;2022-11-11T00:27:01;12.30;99.90
43581;DHT22;29175;51.030;4.606;2022-11-11T00:29:27;12.10;99.90
43581;DHT22;29175;51.030;4.606;2022-11-11T00:31:55;12.00;99.90
43581;DHT22;29175;51.030;4.606;2022-11-11T00:34:41;12.00;99.90
43581;DHT22;29175;51.030;4.606;2022-11-11T00:37:26;11.80;99.90
43581;DHT22;29175;51.030;4.606;2022-11-11T00:39:54;12.10;99.90
43581;DHT22;29175;51.030;4.606;2022-11-11T00:42:21;12.10;99.90
43581;DHT22;29175;51.030;4.606;2022-11-11T00:44:47;12.20;99.90
43581;DHT22;29175;51.030;4.606;2022-11-11T00:47:12;12.00;99.90
43581;DHT22;29175;51.030;4.606;2022-11-11T00:49:57;12.10;99.90
43581;DHT22;29175;51.030;4.606;2022-11-11T00:52:46;12.00;99.90
43581;DHT22;29175;51.030;4.606;2022-11-11T00:55:13;12.00;99.90
43581;DHT22;29175;51.030;4.606;2022-11-11T00:57:40;12.10;99.90
43581;DHT22;29175;51.030;4.606;2022-11-11T01:00:08;12.20;99.90
43581;DHT22;29175;51.030;4.606;2022-11-11T01:02:37;12.10;99.90
43581;DHT22;29175;51.030;4.606;2022-11-11T01:05:03;12.10;99.90
43581;DHT22;29175;51.030;4.606;2022-11-11T01:07:31;12.20;99.90
43581;DHT22;29175;51.030;4.606;2022-11-11T01:09:56;12.10;99.90
43581;DHT22;29175;51.030;4.606;2022-11-11T01:12:23;12.20;99.90
43581;DHT22;29175;51.030;4.606;2022-11-11T01:14:49;12.30;99.90
43581;DHT22;29175;51.030;4.606;2022-11-11T01:17:14;12.40;99.90
43581;DHT22;29175;51.030;4.606;2022-11-11T01:19:42;12.20;99.90
43581;DHT22;29175;51.030;4.606;2022-11-11T01:22:11;12.10;99.90
43581;DHT22;29175;51.030;4.606;2022-11-11T01:24:40;12.20;99.90
43581;DHT22;29175;51.030;4.606;2022-11-11T01:27:07;12.10;99.90
43581;DHT22;29175;51.030;4.606;2022-11-11T01:29:36;12.50;99.90
43581;DHT22;29175;51.030;4.606;2022-11-11T01:32:03;12.40;99.90
43581;DHT22;29175;51.030;4.606;2022-11-11T01:34:29;12.50;99.90
43581;DHT22;29175;51.030;4.606;2022-11-11T01:36:55;12.70;99.90
43581;DHT22;29175;51.030;4.606;2022-11-11T01:39:21;12.50;99.90
43581;DHT22;29175;51.030;4.606;2022-11-11T01:41:49;12.40;99.90
43581;DHT22;29175;51.030;4.606;2022-11-11T01:44:46;12.60;99.90
43581;DHT22;29175;51.030;4.606;2022-11-11T01:47:12;12.60;99.90
43581;DHT22;29175;51.030;4.606;2022-11-11T01:49:47;12.70;99.90
43581;DHT22;29175;51.030;4.606;2022-11-11T01:52:31;12.50;99.90
43581;DHT22;29175;51.030;4.606;2022-11-11T01:57:44;12.60;99.90
43581;DHT22;29175;51.030;4.606;2022-11-11T02:00:15;12.60;99.90
43581;DHT22;29175;51.030;4.606;2022-11-11T02:05:13;12.70;99.90
43581;DHT22;29175;51.030;4.606;2022-11-11T02:08:01;12.60;99.90
43581;DHT22;29175;51.030;4.606;2022-11-11T02:10:29;12.40;99.90
43581;DHT22;29175;51.030;4.606;2022-11-11T02:12:57;12.30;99.90
43581;DHT22;29175;51.030;4.606;2022-11-11T02:15:42;12.30;99.90
43581;DHT22;29175;51.030;4.606;2022-11-11T02:18:11;12.50;99.90
43581;DHT22;29175;51.030;4.606;2022-11-11T02:20:41;12.50;99.90
43581;DHT22;29175;51.030;4.606;2022-11-11T02:25:43;12.30;99.90
43581;DHT22;29175;51.030;4.606;2022-11-11T02:28:12;12.20;99.90
43581;DHT22;29175;51.030;4.606;2022-11-11T02:30:40;12.30;99.90
43581;DHT22;29175;51.030;4.606;2022-11-11T02:33:06;12.20;99.90
43581;DHT22;29175;51.030;4.606;2022-11-11T02:35:37;12.30;99.90
43581;DHT22;29175;51.030;4.606;2022-11-11T02:38:04;12.20;99.90
43581;DHT22;29175;51.030;4.606;2022-11-11T02:40:40;12.10;99.90
43581;DHT22;29175;51.030;4.606;2022-11-11T02:43:26;12.20;99.90
43581;DHT22;29175;51.030;4.606;2022-11-11T02:45:52;12.30;99.90
43581;DHT22;29175;51.030;4.606;2022-11-11T02:48:19;12.20;99.90
43581;DHT22;29175;51.030;4.606;2022-11-11T02:50:45;12.30;99.90
43581;DHT22;29175;51.030;4.606;2022-11-11T02:53:13;12.30;99.90
43581;DHT22;29175;51.030;4.606;2022-11-11T02:55:42;12.30;99.90
43581;DHT22;29175;51.030;4.606;2022-11-11T02:58:08;12.30;99.90
43581;DHT22;29175;51.030;4.606;2022-11-11T03:00:37;12.50;99.90
43581;DHT22;29175;51.030;4.606;2022-11-11T03:03:03;12.30;99.90
43581;DHT22;29175;51.030;4.606;2022-11-11T03:05:29;12.30;99.90
43581;DHT22;29175;51.030;4.606;2022-11-11T03:07:55;12.40;99.90
43581;DHT22;29175;51.030;4.606;2022-11-11T03:10:22;12.30;99.90
43581;DHT22;29175;51.030;4.606;2022-11-11T03:12:48;12.30;99.90
43581;DHT22;29175;51.030;4.606;2022-11-11T03:15:14;12.40;99.90
43581;DHT22;29175;51.030;4.606;2022-11-11T03:17:39;12.20;99.90
43581;DHT22;29175;51.030;4.606;2022-11-11T03:20:12;11.90;99.90
43581;DHT22;29175;51.030;4.606;2022-11-11T03:25:32;12.20;99.90
43581;DHT22;29175;51.030;4.606;2022-11-11T03:30:37;12.30;99.90
43581;DHT22;29175;51.030;4.606;2022-11-11T03:33:03;12.20;99.90
43581;DHT22;29175;51.030;4.606;2022-11-11T03:35:29;12.20;99.90
43581;DHT22;29175;51.030;4.606;2022-11-11T03:37:54;12.20;99.90
43581;DHT22;29175;51.030;4.606;2022-11-11T03:40:39;12.20;99.90
43581;DHT22;29175;51.030;4.606;2022-11-11T03:43:05;12.10;99.90
43581;DHT22;29175;51.030;4.606;2022-11-11T03:45:30;12.30;99.90
43581;DHT22;29175;51.030;4.606;2022-11-11T03:47:58;12.20;99.90
43581;DHT22;29175;51.030;4.606;2022-11-11T03:50:23;12.40;99.90
43581;DHT22;29175;51.030;4.606;2022-11-11T03:52:49;12.50;99.90
43581;DHT22;29175;51.030;4.606;2022-11-11T03:55:15;12.60;99.90
43581;DHT22;29175;51.030;4.606;2022-11-11T03:57:44;12.50;99.90
43581;DHT22;29175;51.030;4.606;2022-11-11T04:00:11;12.60;99.90
43581;DHT22;29175;51.030;4.606;2022-11-11T04:02:37;12.40;99.90
43581;DHT22;29175;51.030;4.606;2022-11-11T04:05:23;12.30;99.90
43581;DHT22;29175;51.030;4.606;2022-11-11T04:08:12;12.30;99.90
43581;DHT22;29175;51.030;4.606;2022-11-11T04:11:06;12.20;99.90
43581;DHT22;29175;51.030;4.606;2022-11-11T04:13:35;12.30;99.90
43581;DHT22;29175;51.030;4.606;2022-11-11T04:16:20;12.20;99.90
43581;DHT22;29175;51.030;4.606;2022-11-11T04:18:46;12.00;99.90
43581;DHT22;29175;51.030;4.606;2022-11-11T04:21:30;12.00;99.90
43581;DHT22;29175;51.030;4.606;2022-11-11T04:24:26;11.90;99.90
43581;DHT22;29175;51.030;4.606;2022-11-11T04:27:12;12.30;99.90
43581;DHT22;29175;51.030;4.606;2022-11-11T04:29:38;12.00;99.90
43581;DHT22;29175;51.030;4.606;2022-11-11T04:32:26;11.90;99.90
43581;DHT22;29175;51.030;4.606;2022-11-11T04:35:12;11.90;99.90
43581;DHT22;29175;51.030;4.606;2022-11-11T04:37:47;12.00;99.90
43581;DHT22;29175;51.030;4.606;2022-11-11T04:40:15;12.00;99.90
43581;DHT22;29175;51.030;4.606;2022-11-11T04:42:59;12.10;99.90
43581;DHT22;29175;51.030;4.606;2022-11-11T04:45:25;12.00;99.90
43581;DHT22;29175;51.030;4.606;2022-11-11T04:48:03;11.90;99.90
43581;DHT22;29175;51.030;4.606;2022-11-11T04:50:33;11.80;99.90
43581;DHT22;29175;51.030;4.606;2022-11-11T04:53:00;11.60;99.90
43581;DHT22;29175;51.030;4.606;2022-11-11T04:55:29;11.60;99.90
43581;DHT22;29175;51.030;4.606;2022-11-11T04:58:13;11.70;99.90
43581;DHT22;29175;51.030;4.606;2022-11-11T05:00:45;11.70;99.90
43581;DHT22;29175;51.030;4.606;2022-11-11T05:03:12;11.60;99.90
43581;DHT22;29175;51.030;4.606;2022-11-11T05:05:41;11.70;99.90
43581;DHT22;29175;51.030;4.606;2022-11-11T05:08:26;11.70;99.90
43581;DHT22;29175;51.030;4.606;2022-11-11T05:11:10;11.40;99.90
43581;DHT22;29175;51.030;4.606;2022-11-11T05:13:35;11.50;99.90
43581;DHT22;29175;51.030;4.606;2022-11-11T05:16:22;11.20;99.90
43581;DHT22;29175;51.030;4.606;2022-11-11T05:19:12;11.20;99.90
43581;DHT22;29175;51.030;4.606;2022-11-11T05:22:06;11.50;99.90
43581;DHT22;29175;51.030;4.606;2022-11-11T05:24:33;11.30;99.90
43581;DHT22;29175;51.030;4.606;2022-11-11T05:27:17;11.30;99.90
43581;DHT22;29175;51.030;4.606;2022-11-11T05:29:45;11.10;99.90
43581;DHT22;29175;51.030;4.606;2022-11-11T05:32:15;11.10;99.90
43581;DHT22;29175;51.030;4.606;2022-11-11T05:34:42;11.00;99.90
43581;DHT22;29175;51.030;4.606;2022-11-11T05:37:07;10.90;99.90
43581;DHT22;29175;51.030;4.606;2022-11-11T05:39:33;10.80;99.90
43581;DHT22;29175;51.030;4.606;2022-11-11T05:41:59;10.80;99.90
43581;DHT22;29175;51.030;4.606;2022-11-11T05:44:24;10.90;99.90
43581;DHT22;29175;51.030;4.606;2022-11-11T05:46:50;10.90;99.90
43581;DHT22;29175;51.030;4.606;2022-11-11T05:49:16;10.60;99.90
43581;DHT22;29175;51.030;4.606;2022-11-11T05:51:43;10.60;99.90
43581;DHT22;29175;51.030;4.606;2022-11-11T05:54:09;10.60;99.90
43581;DHT22;29175;51.030;4.606;2022-11-11T05:56:35;10.70;99.90
43581;DHT22;29175;51.030;4.606;2022-11-11T05:59:01;10.70;99.90
43581;DHT22;29175;51.030;4.606;2022-11-11T06:01:27;10.70;99.90
43581;DHT22;29175;51.030;4.606;2022-11-11T06:03:53;10.60;99.90
43581;DHT22;29175;51.030;4.606;2022-11-11T06:06:19;10.60;99.90
43581;DHT22;29175;51.030;4.606;2022-11-11T06:08:45;10.50;99.90
43581;DHT22;29175;51.030;4.606;2022-11-11T06:11:11;10.50;99.90
43581;DHT22;29175;51.030;4.606;2022-11-11T06:13:39;10.50;99.90
43581;DHT22;29175;51.030;4.606;2022-11-11T06:16:07;10.40;99.90
43581;DHT22;29175;51.030;4.606;2022-11-11T06:18:33;10.40;99.90
43581;DHT22;29175;51.030;4.606;2022-11-11T06:20:59;10.40;99.90
43581;DHT22;29175;51.030;4.606;2022-11-11T06:23:25;10.40;99.90
43581;DHT22;29175;51.030;4.606;2022-11-11T06:25:52;10.40;99.90
43581;DHT22;29175;51.030;4.606;2022-11-11T06:28:40;10.20;99.90
43581;DHT22;29175;51.030;4.606;2022-11-11T06:31:12;10.20;99.90
43581;DHT22;29175;51.030;4.606;2022-11-11T06:33:38;10.20;99.90
43581;DHT22;29175;51.030;4.606;2022-11-11T06:36:05;10.10;99.90
43581;DHT22;29175;51.030;4.606;2022-11-11T06:38:34;10.10;99.90
43581;DHT22;29175;51.030;4.606;2022-11-11T06:41:00;10.10;99.90
43581;DHT22;29175;51.030;4.606;2022-11-11T06:43:27;9.90;99.90
43581;DHT22;29175;51.030;4.606;2022-11-11T06:45:53;10.00;99.90
43581;DHT22;29175;51.030;4.606;2022-11-11T06:48:24;10.00;99.90
43581;DHT22;29175;51.030;4.606;2022-11-11T06:50:50;10.00;99.90
43581;DHT22;29175;51.030;4.606;2022-11-11T06:53:18;9.90;99.90
43581;DHT22;29175;51.030;4.606;2022-11-11T06:55:47;10.00;99.90
43581;DHT22;29175;51.030;4.606;2022-11-11T06:58:17;9.90;99.90
43581;DHT22;29175;51.030;4.606;2022-11-11T07:00:45;9.90;99.90
43581;DHT22;29175;51.030;4.606;2022-11-11T07:03:13;10.00;99.90
43581;DHT22;29175;51.030;4.606;2022-11-11T07:05:41;9.80;99.90
43581;DHT22;29175;51.030;4.606;2022-11-11T07:08:16;10.10;99.90
43581;DHT22;29175;51.030;4.606;2022-11-11T07:10:45;10.00;99.90
43581;DHT22;29175;51.030;4.606;2022-11-11T07:13:12;9.90;99.90
43581;DHT22;29175;51.030;4.606;2022-11-11T07:15:38;9.80;99.90
43581;DHT22;29175;51.030;4.606;2022-11-11T07:18:05;9.80;99.90
43581;DHT22;29175;51.030;4.606;2022-11-11T07:20:33;9.80;99.90
43581;DHT22;29175;51.030;4.606;2022-11-11T07:23:03;9.80;99.90
43581;DHT22;29175;51.030;4.606;2022-11-11T07:25:30;9.90;99.90
43581;DHT22;29175;51.030;4.606;2022-11-11T07:27:59;10.00;99.90
43581;DHT22;29175;51.030;4.606;2022-11-11T07:30:25;10.20;99.90
43581;DHT22;29175;51.030;4.606;2022-11-11T07:32:52;10.20;99.90
43581;DHT22;29175;51.030;4.606;2022-11-11T07:35:19;10.10;99.90
43581;DHT22;29175;51.030;4.606;2022-11-11T07:37:45;10.20;99.90
43581;DHT22;29175;51.030;4.606;2022-11-11T07:40:13;10.20;99.90
43581;DHT22;29175;51.030;4.606;2022-11-11T07:42:40;10.40;99.90
43581;DHT22;29175;51.030;4.606;2022-11-11T07:45:07;10.40;99.90
43581;DHT22;29175;51.030;4.606;2022-11-11T07:47:34;10.30;99.90
43581;DHT22;29175;51.030;4.606;2022-11-11T07:50:02;10.50;99.90
43581;DHT22;29175;51.030;4.606;2022-11-11T07:52:28;10.40;99.90
43581;DHT22;29175;51.030;4.606;2022-11-11T07:54:54;10.40;99.90
43581;DHT22;29175;51.030;4.606;2022-11-11T07:57:20;10.40;99.90
43581;DHT22;29175;51.030;4.606;2022-11-11T07:59:46;10.40;99.90
43581;DHT22;29175;51.030;4.606;2022-11-11T08:02:13;10.60;99.90
43581;DHT22;29175;51.030;4.606;2022-11-11T08:04:42;10.60;99.90
43581;DHT22;29175;51.030;4.606;2022-11-11T08:07:09;10.80;99.90
43581;DHT22;29175;51.030;4.606;2022-11-11T08:09:36;10.70;99.90
43581;DHT22;29175;51.030;4.606;2022-11-11T08:12:01;10.80;99.90
43581;DHT22;29175;51.030;4.606;2022-11-11T08:14:46;10.70;99.90
43581;DHT22;29175;51.030;4.606;2022-11-11T08:17:13;10.80;99.90
43581;DHT22;29175;51.030;4.606;2022-11-11T08:19:40;11.10;99.90
43581;DHT22;29175;51.030;4.606;2022-11-11T08:22:08;10.80;99.90
43581;DHT22;29175;51.030;4.606;2022-11-11T08:24:36;11.00;99.90
43581;DHT22;29175;51.030;4.606;2022-11-11T08:27:02;11.10;99.90
43581;DHT22;29175;51.030;4.606;2022-11-11T08:29:27;11.10;99.90
43581;DHT22;29175;51.030;4.606;2022-11-11T08:31:54;11.10;99.90
43581;DHT22;29175;51.030;4.606;2022-11-11T08:34:23;11.30;99.90
43581;DHT22;29175;51.030;4.606;2022-11-11T08:36:49;11.20;99.90
43581;DHT22;29175;51.030;4.606;2022-11-11T08:39:14;11.20;99.90
43581;DHT22;29175;51.030;4.606;2022-11-11T08:41:43;11.10;99.90
43581;DHT22;29175;51.030;4.606;2022-11-11T08:44:09;11.10;99.90
43581;DHT22;29175;51.030;4.606;2022-11-11T08:46:34;11.00;99.90
43581;DHT22;29175;51.030;4.606;2022-11-11T08:49:00;10.80;99.90
43581;DHT22;29175;51.030;4.606;2022-11-11T08:51:27;10.90;99.90
43581;DHT22;29175;51.030;4.606;2022-11-11T08:53:52;11.30;99.90
43581;DHT22;29175;51.030;4.606;2022-11-11T08:56:18;11.50;99.90
43581;DHT22;29175;51.030;4.606;2022-11-11T08:58:45;11.50;99.90
43581;DHT22;29175;51.030;4.606;2022-11-11T09:01:14;11.60;99.90
43581;DHT22;29175;51.030;4.606;2022-11-11T09:03:41;11.70;99.90
43581;DHT22;29175;51.030;4.606;2022-11-11T09:06:09;11.70;99.90
43581;DHT22;29175;51.030;4.606;2022-11-11T09:08:36;11.70;99.90
43581;DHT22;29175;51.030;4.606;2022-11-11T09:11:02;11.70;99.90
43581;DHT22;29175;51.030;4.606;2022-11-11T09:13:28;11.80;99.90
43581;DHT22;29175;51.030;4.606;2022-11-11T09:15:54;11.50;99.90
43581;DHT22;29175;51.030;4.606;2022-11-11T09:18:19;11.90;99.90
43581;DHT22;29175;51.030;4.606;2022-11-11T09:20:45;12.00;99.90
43581;DHT22;29175;51.030;4.606;2022-11-11T09:23:11;12.00;99.90
43581;DHT22;29175;51.030;4.606;2022-11-11T09:25:36;11.90;99.90
43581;DHT22;29175;51.030;4.606;2022-11-11T09:28:02;12.00;99.90
43581;DHT22;29175;51.030;4.606;2022-11-11T09:30:28;12.30;99.90
43581;DHT22;29175;51.030;4.606;2022-11-11T09:33:03;12.40;99.90
43581;DHT22;29175;51.030;4.606;2022-11-11T09:35:29;12.30;99.90
43581;DHT22;29175;51.030;4.606;2022-11-11T09:37:59;12.10;99.90
43581;DHT22;29175;51.030;4.606;2022-11-11T09:46:21;12.10;99.90
43581;DHT22;29175;51.030;4.606;2022-11-11T09:51:46;12.30;99.90
43581;DHT22;29175;51.030;4.606;2022-11-11T09:54:34;12.60;99.90
43581;DHT22;29175;51.030;4.606;2022-11-11T09:57:05;12.60;99.90
43581;DHT22;29175;51.030;4.606;2022-11-11T09:59:47;12.70;99.90
43581;DHT22;29175;51.030;4.606;2022-11-11T10:02:40;13.00;99.90
43581;DHT22;29175;51.030;4.606;2022-11-11T10:05:13;13.20;99.90
43581;DHT22;29175;51.030;4.606;2022-11-11T10:07:56;13.10;99.90
43581;DHT22;29175;51.030;4.606;2022-11-11T10:13:15;13.20;99.90
43581;DHT22;29175;51.030;4.606;2022-11-11T10:21:53;13.50;99.90
43581;DHT22;29175;51.030;4.606;2022-11-11T10:24:32;13.80;99.90
43581;DHT22;29175;51.030;4.606;2022-11-11T10:27:05;14.20;99.90
43581;DHT22;29175;51.030;4.606;2022-11-11T10:29:42;14.30;99.90
43581;DHT22;29175;51.030;4.606;2022-11-11T10:32:26;14.30;99.90
43581;DHT22;29175;51.030;4.606;2022-11-11T10:34:59;14.30;99.90
43581;DHT22;29175;51.030;4.606;2022-11-11T10:37:39;14.20;99.90
43581;DHT22;29175;51.030;4.606;2022-11-11T10:40:27;14.50;99.90
43581;DHT22;29175;51.030;4.606;2022-11-11T10:42:55;14.70;99.90
43581;DHT22;29175;51.030;4.606;2022-11-11T10:45:46;15.00;99.90
43581;DHT22;29175;51.030;4.606;2022-11-11T10:48:23;15.60;99.90
43581;DHT22;29175;51.030;4.606;2022-11-11T10:50:56;15.40;99.90
43581;DHT22;29175;51.030;4.606;2022-11-11T10:53:47;15.20;99.90
43581;DHT22;29175;51.030;4.606;2022-11-11T10:56:40;15.20;99.90
43581;DHT22;29175;51.030;4.606;2022-11-11T10:59:23;15.10;99.90
43581;DHT22;29175;51.030;4.606;2022-11-11T11:02:00;15.00;99.90
43581;DHT22;29175;51.030;4.606;2022-11-11T11:04:52;15.00;99.90
43581;DHT22;29175;51.030;4.606;2022-11-11T11:07:40;15.10;99.90
43581;DHT22;29175;51.030;4.606;2022-11-11T11:10:23;15.10;99.90
43581;DHT22;29175;51.030;4.606;2022-11-11T11:15:24;15.10;99.90
43581;DHT22;29175;51.030;4.606;2022-11-11T11:18:05;14.80;99.90
43581;DHT22;29175;51.030;4.606;2022-11-11T11:20:33;14.90;99.90
43581;DHT22;29175;51.030;4.606;2022-11-11T11:23:01;14.90;99.90
43581;DHT22;29175;51.030;4.606;2022-11-11T11:25:30;14.90;99.90
43581;DHT22;29175;51.030;4.606;2022-11-11T11:28:18;14.90;99.90
43581;DHT22;29175;51.030;4.606;2022-11-11T11:31:02;15.00;99.90
43581;DHT22;29175;51.030;4.606;2022-11-11T11:33:49;15.10;99.90
43581;DHT22;29175;51.030;4.606;2022-11-11T11:36:16;15.10;99.90
43581;DHT22;29175;51.030;4.606;2022-11-11T11:38:46;15.10;99.90
43581;DHT22;29175;51.030;4.606;2022-11-11T11:41:15;15.10;99.90
43581;DHT22;29175;51.030;4.606;2022-11-11T11:43:42;15.20;99.90
43581;DHT22;29175;51.030;4.606;2022-11-11T11:49:21;15.30;99.90
43581;DHT22;29175;51.030;4.606;2022-11-11T11:52:06;15.20;99.90
43581;DHT22;29175;51.030;4.606;2022-11-11T11:57:41;15.40;99.90
43581;DHT22;29175;51.030;4.606;2022-11-11T12:00:24;15.50;99.90
43581;DHT22;29175;51.030;4.606;2022-11-11T12:03:16;15.40;99.90
43581;DHT22;29175;51.030;4.606;2022-11-11T12:05:49;15.40;99.90
43581;DHT22;29175;51.030;4.606;2022-11-11T12:13:46;15.30;99.90
43581;DHT22;29175;51.030;4.606;2022-11-11T12:19:38;15.70;99.90
43581;DHT22;29175;51.030;4.606;2022-11-11T12:22:24;15.60;99.90
43581;DHT22;29175;51.030;4.606;2022-11-11T12:27:42;15.60;99.90
43581;DHT22;29175;51.030;4.606;2022-11-11T12:30:18;15.80;99.90
43581;DHT22;29175;51.030;4.606;2022-11-11T12:33:19;15.70;99.90
43581;DHT22;29175;51.030;4.606;2022-11-11T12:38:41;15.60;99.90
43581;DHT22;29175;51.030;4.606;2022-11-11T12:43:56;15.70;99.90
43581;DHT22;29175;51.030;4.606;2022-11-11T12:46:30;15.80;99.90
43581;DHT22;29175;51.030;4.606;2022-11-11T12:49:06;15.80;99.90
43581;DHT22;29175;51.030;4.606;2022-11-11T12:54:57;16.00;99.90
43581;DHT22;29175;51.030;4.606;2022-11-11T12:57:40;16.00;99.90
43581;DHT22;29175;51.030;4.606;2022-11-11T13:00:20;16.00;99.90
43581;DHT22;29175;51.030;4.606;2022-11-11T13:03:16;16.00;99.90
43581;DHT22;29175;51.030;4.606;2022-11-11T13:08:40;16.20;99.90
43581;DHT22;29175;51.030;4.606;2022-11-11T13:16:16;16.10;99.90
43581;DHT22;29175;51.030;4.606;2022-11-11T13:19:02;16.10;99.90
43581;DHT22;29175;51.030;4.606;2022-11-11T13:21:35;16.10;99.90
43581;DHT22;29175;51.030;4.606;2022-11-11T13:24:12;16.10;99.90
43581;DHT22;29175;51.030;4.606;2022-11-11T13:26:52;16.20;99.90
43581;DHT22;29175;51.030;4.606;2022-11-11T13:29:39;16.20;99.90
43581;DHT22;29175;51.030;4.606;2022-11-11T13:32:12;16.10;99.90
43581;DHT22;29175;51.030;4.606;2022-11-11T13:34:39;16.10;99.90
43581;DHT22;29175;51.030;4.606;2022-11-11T13:37:07;16.10;99.90
43581;DHT22;29175;51.030;4.606;2022-11-11T13:39:43;16.10;99.90
43581;DHT22;29175;51.030;4.606;2022-11-11T13:42:18;16.20;99.90
43581;DHT22;29175;51.030;4.606;2022-11-11T13:44:53;16.10;99.90
43581;DHT22;29175;51.030;4.606;2022-11-11T13:47:43;16.20;99.90
43581;DHT22;29175;51.030;4.606;2022-11-11T13:50:31;16.10;99.90
43581;DHT22;29175;51.030;4.606;2022-11-11T13:53:06;16.00;99.90
43581;DHT22;29175;51.030;4.606;2022-11-11T13:55:46;15.90;99.90
43581;DHT22;29175;51.030;4.606;2022-11-11T13:58:27;15.90;99.90
43581;DHT22;29175;51.030;4.606;2022-11-11T14:01:05;16.00;99.90
43581;DHT22;29175;51.030;4.606;2022-11-11T14:13:51;15.90;99.90
43581;DHT22;29175;51.030;4.606;2022-11-11T14:21:46;15.60;99.90
43581;DHT22;29175;51.030;4.606;2022-11-11T14:27:14;15.50;99.90
43581;DHT22;29175;51.030;4.606;2022-11-11T14:29:51;15.40;99.90
43581;DHT22;29175;51.030;4.606;2022-11-11T14:40:32;15.10;99.90
43581;DHT22;29175;51.030;4.606;2022-11-11T14:43:32;15.00;99.90
43581;DHT22;29175;51.030;4.606;2022-11-11T14:45:50;14.90;99.90
43581;DHT22;29175;51.030;4.606;2022-11-11T14:48:51;14.80;99.90
43581;DHT22;29175;51.030;4.606;2022-11-11T14:54:36;14.70;99.90
43581;DHT22;29175;51.030;4.606;2022-11-11T14:57:10;14.60;99.90
43581;DHT22;29175;51.030;4.606;2022-11-11T14:59:41;14.50;99.90
43581;DHT22;29175;51.030;4.606;2022-11-11T15:02:17;14.50;99.90
43581;DHT22;29175;51.030;4.606;2022-11-11T15:04:46;14.50;99.90
43581;DHT22;29175;51.030;4.606;2022-11-11T15:07:53;14.40;99.90
43581;DHT22;29175;51.030;4.606;2022-11-11T15:10:28;14.50;99.90
43581;DHT22;29175;51.030;4.606;2022-11-11T15:15:53;14.20;99.90
43581;DHT22;29175;51.030;4.606;2022-11-11T15:21:34;14.10;99.90
43581;DHT22;29175;51.030;4.606;2022-11-11T15:24:16;14.00;99.90
43581;DHT22;29175;51.030;4.606;2022-11-11T15:26:54;13.90;99.90
43581;DHT22;29175;51.030;4.606;2022-11-11T15:35:08;13.60;99.90
43581;DHT22;29175;51.030;4.606;2022-11-11T15:37:37;13.60;99.90
43581;DHT22;29175;51.030;4.606;2022-11-11T15:40:05;13.50;99.90
43581;DHT22;29175;51.030;4.606;2022-11-11T15:42:34;13.40;99.90
43581;DHT22;29175;51.030;4.606;2022-11-11T15:47:44;13.20;99.90
43581;DHT22;29175;51.030;4.606;2022-11-11T15:52:59;13.10;99.90
43581;DHT22;29175;51.030;4.606;2022-11-11T15:55:33;13.10;99.90
43581;DHT22;29175;51.030;4.606;2022-11-11T15:58:23;13.00;99.90
43581;DHT22;29175;51.030;4.606;2022-11-11T16:00:49;12.90;99.90
43581;DHT22;29175;51.030;4.606;2022-11-11T16:03:17;12.60;99.90
43581;DHT22;29175;51.030;4.606;2022-11-11T16:05:44;12.70;99.90
43581;DHT22;29175;51.030;4.606;2022-11-11T16:08:17;12.70;99.90
43581;DHT22;29175;51.030;4.606;2022-11-11T16:10:53;12.70;99.90
43581;DHT22;29175;51.030;4.606;2022-11-11T16:13:24;12.60;99.90
43581;DHT22;29175;51.030;4.606;2022-11-11T16:15:54;12.50;99.90
43581;DHT22;29175;51.030;4.606;2022-11-11T16:18:41;12.40;99.90
43581;DHT22;29175;51.030;4.606;2022-11-11T16:21:12;12.40;99.90
43581;DHT22;29175;51.030;4.606;2022-11-11T16:23:40;12.30;99.90
43581;DHT22;29175;51.030;4.606;2022-11-11T16:26:07;12.40;99.90
43581;DHT22;29175;51.030;4.606;2022-11-11T16:28:51;12.30;99.90
43581;DHT22;29175;51.030;4.606;2022-11-11T16:34:00;12.20;99.90
43581;DHT22;29175;51.030;4.606;2022-11-11T16:36:26;12.10;99.90
43581;DHT22;29175;51.030;4.606;2022-11-11T16:38:51;12.00;99.90
43581;DHT22;29175;51.030;4.606;2022-11-11T16:41:24;12.20;99.90
43581;DHT22;29175;51.030;4.606;2022-11-11T16:43:54;12.10;99.90
43581;DHT22;29175;51.030;4.606;2022-11-11T16:49:29;12.00;99.90
43581;DHT22;29175;51.030;4.606;2022-11-11T16:52:07;11.90;99.90
43581;DHT22;29175;51.030;4.606;2022-11-11T16:54:37;11.90;99.90
43581;DHT22;29175;51.030;4.606;2022-11-11T16:57:05;11.80;99.90
43581;DHT22;29175;51.030;4.606;2022-11-11T17:00:02;11.70;99.90
43581;DHT22;29175;51.030;4.606;2022-11-11T17:02:29;11.70;99.90
43581;DHT22;29175;51.030;4.606;2022-11-11T17:04:56;11.60;99.90
43581;DHT22;29175;51.030;4.606;2022-11-11T17:07:37;11.60;99.90
43581;DHT22;29175;51.030;4.606;2022-11-11T17:12:35;11.60;99.90
43581;DHT22;29175;51.030;4.606;2022-11-11T17:15:05;11.50;99.90
43581;DHT22;29175;51.030;4.606;2022-11-11T17:17:32;11.50;99.90
43581;DHT22;29175;51.030;4.606;2022-11-11T17:22:31;11.30;99.90
43581;DHT22;29175;51.030;4.606;2022-11-11T17:24:57;11.40;99.90
43581;DHT22;29175;51.030;4.606;2022-11-11T17:27:23;11.30;99.90
43581;DHT22;29175;51.030;4.606;2022-11-11T17:29:48;11.20;99.90
43581;DHT22;29175;51.030;4.606;2022-11-11T17:32:14;11.20;99.90
43581;DHT22;29175;51.030;4.606;2022-11-11T17:34:40;11.20;99.90
43581;DHT22;29175;51.030;4.606;2022-11-11T17:37:06;11.30;99.90
43581;DHT22;29175;51.030;4.606;2022-11-11T17:39:32;11.20;99.90
43581;DHT22;29175;51.030;4.606;2022-11-11T17:41:57;11.10;99.90
43581;DHT22;29175;51.030;4.606;2022-11-11T17:44:23;11.00;99.90
43581;DHT22;29175;51.030;4.606;2022-11-11T17:46:49;11.00;99.90
43581;DHT22;29175;51.030;4.606;2022-11-11T17:49:15;11.00;99.90
43581;DHT22;29175;51.030;4.606;2022-11-11T17:51:41;11.00;99.90
43581;DHT22;29175;51.030;4.606;2022-11-11T17:54:07;11.10;99.90
43581;DHT22;29175;51.030;4.606;2022-11-11T17:56:34;10.90;99.90
43581;DHT22;29175;51.030;4.606;2022-11-11T17:59:00;10.90;99.90
43581;DHT22;29175;51.030;4.606;2022-11-11T18:01:26;10.90;99.90
43581;DHT22;29175;51.030;4.606;2022-11-11T18:03:58;10.90;99.90
43581;DHT22;29175;51.030;4.606;2022-11-11T18:06:23;10.90;99.90
43581;DHT22;29175;51.030;4.606;2022-11-11T18:08:54;10.90;99.90